Time;durP1;ratioP1;P1;durP2;ratioP2;P2;SDS_P1;SDS_P2;PMS_P1;PMS_P2;Temp;Humidity;BMP_temperature;BMP_pressure;BME280_temperature;BME280_humidity;BME280_pressure;Samples;Min_cycle;Max_cycle;Signal;HPM_P1;HPM_P2
2023/04/10 00:01:07;;;;;;;27.88;15.80;;;;;;;;;;4974699;28;20019;-66
2023/04/10 00:03:32;;;;;;;27.63;16.20;;;;;;;;;;4974867;28;20062;-67
2023/04/10 00:05:57;;;;;;;27.33;15.40;;;;;;;;;;4974773;28;20098;-69
2023/04/10 00:08:23;;;;;;;28.50;16.20;;;;;;;;;;4974776;28;20031;-66
2023/04/10 00:10:48;;;;;;;30.08;16.02;;;;;;;;;;4979564;28;20030;-68
2023/04/10 00:13:14;;;;;;;28.52;15.82;;;;;;;;;;4975075;28;20106;-65
2023/04/10 00:15:39;;;;;;;28.92;16.05;;;;;;;;;;4975725;28;20081;-66
2023/04/10 00:18:05;;;;;;;27.93;15.63;;;;;;;;;;4975085;28;20038;-67
2023/04/10 00:20:30;;;;;;;27.90;16.37;;;;;;;;;;4975125;28;20053;-67
2023/04/10 00:22:55;;;;;;;27.37;15.70;;;;;;;;;;4975046;28;20037;-66
2023/04/10 00:25:21;;;;;;;29.40;16.23;;;;;;;;;;4974858;28;20478;-66
2023/04/10 00:27:47;;;;;;;29.30;16.98;;;;;;;;;;4973705;28;20030;-67
2023/04/10 00:30:12;;;;;;;33.93;17.27;;;;;;;;;;4973880;28;20356;-68
2023/04/10 00:32:37;;;;;;;29.48;16.13;;;;;;;;;;4974386;28;20992;-67
2023/04/10 00:35:02;;;;;;;27.17;15.55;;;;;;;;;;4974092;28;20487;-67
2023/04/10 00:37:28;;;;;;;29.20;16.33;;;;;;;;;;4972041;28;20026;-68
2023/04/10 00:39:53;;;;;;;27.83;15.57;;;;;;;;;;4973828;28;20061;-66
2023/04/10 00:42:18;;;;;;;28.02;15.32;;;;;;;;;;4973792;28;20038;-66
2023/04/10 00:44:43;;;;;;;26.67;14.45;;;;;;;;;;4972351;28;20427;-66
2023/04/10 00:47:08;;;;;;;27.77;14.93;;;;;;;;;;4972427;28;20034;-68
2023/04/10 00:49:34;;;;;;;28.38;14.32;;;;;;;;;;4973614;28;20027;-67
2023/04/10 00:51:59;;;;;;;27.63;15.37;;;;;;;;;;4973845;28;20026;-66
2023/04/10 00:54:25;;;;;;;24.67;13.98;;;;;;;;;;4973378;28;20434;-66
2023/04/10 00:56:50;;;;;;;24.95;14.40;;;;;;;;;;4973116;28;20029;-68
2023/04/10 00:59:15;;;;;;;27.77;15.40;;;;;;;;;;4973398;28;20018;-67
2023/04/10 01:01:41;;;;;;;26.83;14.80;;;;;;;;;;4973517;28;20545;-67
2023/04/10 01:04:06;;;;;;;29.37;15.07;;;;;;;;;;4973671;28;20023;-66
2023/04/10 01:06:50;;;;;;;27.20;14.75;;;;;;;;;;4973569;28;20463;-65
2023/04/10 01:09:24;;;;;;;24.77;13.93;;;;;;;;;;4974258;28;20105;-66
2023/04/10 01:11:51;;;;;;;25.77;14.60;;;;;;;;;;4974056;28;20066;-67
2023/04/10 01:14:16;;;;;;;;;;;;;;;;;;4976196;28;20035;-66
2023/04/10 01:16:52;;;;;;;25.83;13.82;;;;;;;;;;4975643;28;19913;-66
2023/04/10 01:19:35;;;;;;;25.50;14.07;;;;;;;;;;4977093;28;20030;-67
2023/04/10 01:22:01;;;;;;;30.17;15.25;;;;;;;;;;4984184;28;20014;-67
2023/04/10 01:24:29;;;;;;;28.02;14.57;;;;;;;;;;4984701;28;20039;-65
2023/04/10 01:26:54;;;;;;;25.10;14.07;;;;;;;;;;4989586;28;20101;-67
2023/04/10 01:29:21;;;;;;;26.02;14.05;;;;;;;;;;4980329;28;20512;-66
2023/04/10 01:31:55;;;;;;;25.65;14.65;;;;;;;;;;4973697;28;20034;-68
2023/04/10 01:34:22;;;;;;;27.42;13.43;;;;;;;;;;4972843;28;20441;-65
2023/04/10 01:36:54;;;;;;;27.13;14.20;;;;;;;;;;4972322;28;20026;-66
2023/04/10 01:39:20;;;;;;;26.23;13.60;;;;;;;;;;4973028;28;20618;-66
2023/04/10 01:41:46;;;;;;;25.63;13.85;;;;;;;;;;4973273;28;20023;-66
2023/04/10 01:44:13;;;;;;;27.95;14.50;;;;;;;;;;4973013;28;20493;-68
2023/04/10 01:46:39;;;;;;;26.17;14.60;;;;;;;;;;4972417;28;20019;-67
2023/04/10 01:49:04;;;;;;;27.33;14.20;;;;;;;;;;4973147;28;20081;-65
2023/04/10 01:51:31;;;;;;;26.23;14.70;;;;;;;;;;4972915;28;20106;-66
2023/04/10 01:53:56;;;;;;;26.00;14.23;;;;;;;;;;4972822;28;20498;-66
2023/04/10 01:56:21;;;;;;;24.63;13.32;;;;;;;;;;4972817;28;20106;-66
2023/04/10 01:58:47;;;;;;;25.75;14.05;;;;;;;;;;4972799;28;20031;-67
2023/04/10 02:01:19;;;;;;;28.40;15.70;;;;;;;;;;4973904;28;20031;-67
2023/04/10 02:03:44;;;;;;;27.52;14.95;;;;;;;;;;4973492;28;20019;-66
2023/04/10 02:06:16;;;;;;;25.77;14.43;;;;;;;;;;4982386;28;20027;-66
2023/04/10 02:08:45;;;;;;;28.30;15.07;;;;;;;;;;4980950;28;20037;-66
2023/04/10 02:11:22;;;;;;;24.58;13.45;;;;;;;;;;4986589;28;20078;-67
2023/04/10 02:13:48;;;;;;;23.92;13.23;;;;;;;;;;4989442;28;20042;-67
2023/04/10 02:16:16;;;;;;;24.13;13.13;;;;;;;;;;4982457;28;20034;-67
2023/04/10 02:18:41;;;;;;;25.92;12.85;;;;;;;;;;4984487;28;20490;-66
2023/04/10 02:21:08;;;;;;;24.73;13.27;;;;;;;;;;4966199;28;20035;-69
2023/04/10 02:23:34;;;;;;;25.00;12.95;;;;;;;;;;4956321;28;20023;-66
2023/04/10 02:26:04;;;;;;;28.30;14.40;;;;;;;;;;4961022;29;20024;-72
2023/04/10 02:28:30;;;;;;;23.88;13.90;;;;;;;;;;4955500;29;20020;-66
2023/04/10 02:30:55;;;;;;;26.58;13.70;;;;;;;;;;4956086;29;20027;-68
2023/04/10 02:33:20;;;;;;;23.20;12.90;;;;;;;;;;4961690;29;20038;-67
2023/04/10 02:35:45;;;;;;;25.20;13.68;;;;;;;;;;4966374;29;20598;-68
2023/04/10 02:38:10;;;;;;;26.73;13.90;;;;;;;;;;4961604;29;20034;-69
2023/04/10 02:40:37;;;;;;;24.60;13.20;;;;;;;;;;4961612;29;20039;-66
2023/04/10 02:43:02;;;;;;;23.38;13.05;;;;;;;;;;4961457;29;20055;-66
2023/04/10 02:45:27;;;;;;;25.42;14.02;;;;;;;;;;4960447;28;20023;-66
2023/04/10 02:47:52;;;;;;;26.27;14.18;;;;;;;;;;4958718;29;20023;-67
2023/04/10 02:50:17;;;;;;;23.48;13.55;;;;;;;;;;4957347;29;20047;-66
2023/04/10 02:52:43;;;;;;;25.35;13.57;;;;;;;;;;4955727;29;20024;-65
2023/04/10 02:55:08;;;;;;;25.00;13.13;;;;;;;;;;4957642;28;20106;-66
2023/04/10 02:57:33;;;;;;;23.83;13.40;;;;;;;;;;4956344;29;20054;-65
2023/04/10 03:00:01;;;;;;;23.70;13.17;;;;;;;;;;4956720;28;20066;-65
2023/04/10 03:02:26;;;;;;;23.15;13.55;;;;;;;;;;4956535;29;20096;-65
2023/04/10 03:04:52;;;;;;;24.75;13.00;;;;;;;;;;4956144;29;20027;-66
2023/04/10 03:07:17;;;;;;;25.05;13.35;;;;;;;;;;4956205;29;20106;-66
2023/04/10 03:09:42;;;;;;;24.33;12.88;;;;;;;;;;4961429;28;20018;-66
2023/04/10 03:12:07;;;;;;;25.92;12.82;;;;;;;;;;4975504;28;20113;-68
2023/04/10 03:14:33;;;;;;;23.90;13.00;;;;;;;;;;4975627;28;20475;-66
2023/04/10 03:16:58;;;;;;;24.25;13.27;;;;;;;;;;4973738;28;20018;-68
2023/04/10 03:19:25;;;;;;;25.90;13.48;;;;;;;;;;4975557;28;20067;-67
2023/04/10 03:21:50;;;;;;;25.35;13.15;;;;;;;;;;4975604;28;20015;-67
2023/04/10 03:24:15;;;;;;;23.63;13.00;;;;;;;;;;4975264;28;20019;-66
2023/04/10 03:26:41;;;;;;;25.10;13.65;;;;;;;;;;4974577;28;20082;-66
2023/04/10 03:29:06;;;;;;;26.88;13.15;;;;;;;;;;4975352;28;20045;-65
2023/04/10 03:31:31;;;;;;;25.27;13.82;;;;;;;;;;4975114;28;20549;-65
2023/04/10 03:33:56;;;;;;;22.17;12.68;;;;;;;;;;4975496;28;20015;-66
2023/04/10 03:36:21;;;;;;;25.60;13.60;;;;;;;;;;4975746;28;20204;-67
2023/04/10 03:38:46;;;;;;;25.92;13.10;;;;;;;;;;4975810;28;20031;-70
2023/04/10 03:41:12;;;;;;;24.90;12.90;;;;;;;;;;4975630;28;20019;-67
2023/04/10 03:43:37;;;;;;;26.70;14.03;;;;;;;;;;4975635;28;20382;-66
2023/04/10 03:46:03;;;;;;;27.42;14.55;;;;;;;;;;4975186;28;20029;-66
2023/04/10 03:48:29;;;;;;;26.07;13.93;;;;;;;;;;4973156;28;20190;-66
2023/04/10 03:50:56;;;;;;;26.70;13.90;;;;;;;;;;4975007;28;20117;-67
2023/04/10 03:53:21;;;;;;;27.10;14.43;;;;;;;;;;4975570;28;20090;-66
2023/04/10 03:55:46;;;;;;;23.10;12.88;;;;;;;;;;4974899;28;20050;-66
2023/04/10 03:58:12;;;;;;;23.23;13.10;;;;;;;;;;4974103;28;20026;-67
2023/04/10 04:00:37;;;;;;;24.00;12.20;;;;;;;;;;4975076;28;20018;-67
2023/04/10 04:03:03;;;;;;;23.03;11.93;;;;;;;;;;4974866;28;20038;-66
2023/04/10 04:05:29;;;;;;;23.15;12.10;;;;;;;;;;4974535;28;20466;-67
2023/04/10 04:07:54;;;;;;;22.25;12.05;;;;;;;;;;4974386;28;20045;-66
2023/04/10 04:10:19;;;;;;;19.45;10.85;;;;;;;;;;4974613;28;20445;-67
2023/04/10 04:12:45;;;;;;;25.50;12.20;;;;;;;;;;4974658;28;20035;-65
2023/04/10 04:15:10;;;;;;;23.70;12.18;;;;;;;;;;4974471;28;20033;-66
2023/04/10 04:17:35;;;;;;;20.60;11.53;;;;;;;;;;4973910;28;20215;-66
2023/04/10 04:20:00;;;;;;;20.83;11.30;;;;;;;;;;4974397;28;20498;-66
2023/04/10 04:22:27;;;;;;;23.00;12.00;;;;;;;;;;4967810;28;20555;-67
2023/04/10 04:24:52;;;;;;;21.60;11.13;;;;;;;;;;4954983;28;20023;-66
2023/04/10 04:27:18;;;;;;;22.15;11.43;;;;;;;;;;4954247;29;20494;-67
2023/04/10 04:29:45;;;;;;;21.38;11.38;;;;;;;;;;4954862;28;20546;-65
2023/04/10 04:32:10;;;;;;;22.67;12.25;;;;;;;;;;4955080;28;20061;-66
2023/04/10 04:34:35;;;;;;;23.50;11.93;;;;;;;;;;4954833;29;20055;-67
2023/04/10 04:37:01;;;;;;;24.38;13.00;;;;;;;;;;4954052;28;20082;-67
2023/04/10 04:39:26;;;;;;;23.60;12.13;;;;;;;;;;4954661;28;20117;-68
2023/04/10 04:41:52;;;;;;;21.13;11.63;;;;;;;;;;4955194;29;20024;-67
2023/04/10 04:44:18;;;;;;;18.90;10.55;;;;;;;;;;4954934;28;20020;-68
2023/04/10 04:46:43;;;;;;;24.58;12.07;;;;;;;;;;4954905;29;20027;-67
2023/04/10 04:49:08;;;;;;;22.42;11.98;;;;;;;;;;4955088;28;20027;-66
2023/04/10 04:51:34;;;;;;;22.25;11.18;;;;;;;;;;4955466;28;20027;-66
2023/04/10 04:53:59;;;;;;;19.90;11.13;;;;;;;;;;4955483;28;20019;-65
2023/04/10 04:56:25;;;;;;;23.92;13.25;;;;;;;;;;4956833;29;20111;-66
2023/04/10 04:58:50;;;;;;;20.87;10.90;;;;;;;;;;4957518;29;20090;-68
2023/04/10 05:01:15;;;;;;;20.70;11.30;;;;;;;;;;4967258;28;20038;-68
2023/04/10 05:03:40;;;;;;;22.27;12.30;;;;;;;;;;4974988;29;20014;-68
2023/04/10 05:06:05;;;;;;;22.30;12.07;;;;;;;;;;4978858;29;20039;-69
2023/04/10 05:08:31;;;;;;;21.80;11.93;;;;;;;;;;4976318;28;20070;-67
2023/04/10 05:10:56;;;;;;;22.77;12.03;;;;;;;;;;4969565;28;20478;-66
2023/04/10 05:13:21;;;;;;;22.73;12.25;;;;;;;;;;4954305;28;20030;-65
2023/04/10 05:15:47;;;;;;;21.17;11.15;;;;;;;;;;4954106;29;20130;-67
2023/04/10 05:18:12;;;;;;;20.73;11.98;;;;;;;;;;4953680;28;20039;-66
2023/04/10 05:20:38;;;;;;;19.75;10.98;;;;;;;;;;4954223;28;20019;-67
2023/04/10 05:23:03;;;;;;;21.27;12.10;;;;;;;;;;4954030;29;20106;-66
2023/04/10 05:25:28;;;;;;;23.50;12.73;;;;;;;;;;4953704;29;20026;-67
2023/04/10 05:27:53;;;;;;;23.58;12.27;;;;;;;;;;4952917;28;20076;-66
2023/04/10 05:30:18;;;;;;;20.70;11.82;;;;;;;;;;4953675;29;20090;-66
2023/04/10 05:32:44;;;;;;;20.73;11.87;;;;;;;;;;4953470;29;20023;-65
2023/04/10 05:35:10;;;;;;;20.50;11.80;;;;;;;;;;4953552;28;20099;-66
2023/04/10 05:37:35;;;;;;;22.63;11.63;;;;;;;;;;4952713;28;20160;-65
2023/04/10 05:40:00;;;;;;;21.52;11.57;;;;;;;;;;4953516;28;20540;-68
2023/04/10 05:42:25;;;;;;;22.10;12.87;;;;;;;;;;4953487;28;20097;-66
2023/04/10 05:44:51;;;;;;;21.03;11.77;;;;;;;;;;4956331;28;20022;-64
2023/04/10 05:47:16;;;;;;;19.23;11.18;;;;;;;;;;4971213;28;20034;-67
2023/04/10 05:49:41;;;;;;;18.40;11.45;;;;;;;;;;4971913;28;20034;-66
2023/04/10 05:52:06;;;;;;;19.27;10.67;;;;;;;;;;4972864;28;20050;-67
2023/04/10 05:54:31;;;;;;;19.75;11.13;;;;;;;;;;4972837;28;20022;-68
2023/04/10 05:56:56;;;;;;;18.70;11.30;;;;;;;;;;4972153;28;20030;-67
2023/04/10 05:59:22;;;;;;;19.23;10.90;;;;;;;;;;4972350;28;20133;-66
2023/04/10 06:01:47;;;;;;;19.20;10.70;;;;;;;;;;4972869;28;20041;-65
2023/04/10 06:04:12;;;;;;;18.65;10.43;;;;;;;;;;4972774;28;20025;-67
2023/04/10 06:06:37;;;;;;;19.17;10.93;;;;;;;;;;4971842;28;20528;-67
2023/04/10 06:09:03;;;;;;;19.08;9.85;;;;;;;;;;4973292;28;20031;-66
2023/04/10 06:11:28;;;;;;;16.33;10.13;;;;;;;;;;4973885;28;20068;-67
2023/04/10 06:13:53;;;;;;;21.47;11.60;;;;;;;;;;4973770;28;20031;-65
2023/04/10 06:16:18;;;;;;;19.73;10.90;;;;;;;;;;4973368;28;20375;-66
2023/04/10 06:18:43;;;;;;;19.47;10.60;;;;;;;;;;4973970;28;20030;-66
2023/04/10 06:21:08;;;;;;;18.43;11.07;;;;;;;;;;4974018;28;20018;-66
2023/04/10 06:23:34;;;;;;;17.60;10.25;;;;;;;;;;4975267;28;20062;-65
2023/04/10 06:26:00;;;;;;;18.75;10.98;;;;;;;;;;4974968;28;20037;-67
2023/04/10 06:28:25;;;;;;;19.30;11.15;;;;;;;;;;4973481;28;20497;-68
2023/04/10 06:30:50;;;;;;;21.13;12.23;;;;;;;;;;4972684;28;20089;-67
2023/04/10 06:33:16;;;;;;;19.73;11.47;;;;;;;;;;4971131;28;20970;-66
2023/04/10 06:35:41;;;;;;;20.37;11.80;;;;;;;;;;4971237;28;20019;-66
2023/04/10 06:38:06;;;;;;;19.50;11.00;;;;;;;;;;4972263;28;20038;-65
2023/04/10 06:40:32;;;;;;;20.03;11.40;;;;;;;;;;4973905;28;20023;-68
2023/04/10 06:42:58;;;;;;;18.98;11.25;;;;;;;;;;4974918;28;20099;-66
2023/04/10 06:45:23;;;;;;;19.00;10.90;;;;;;;;;;4976850;28;20416;-67
2023/04/10 06:47:48;;;;;;;18.53;11.17;;;;;;;;;;4975014;28;20388;-66
2023/04/10 06:50:13;;;;;;;23.42;12.32;;;;;;;;;;4977167;28;20015;-68
2023/04/10 06:52:38;;;;;;;19.10;11.57;;;;;;;;;;4975673;28;20038;-67
2023/04/10 06:55:04;;;;;;;19.58;11.43;;;;;;;;;;4974574;28;20027;-68
2023/04/10 06:57:29;;;;;;;18.58;10.23;;;;;;;;;;4976985;28;20078;-66
2023/04/10 06:59:55;;;;;;;16.40;9.77;;;;;;;;;;4976131;28;20085;-68
2023/04/10 07:02:20;;;;;;;18.67;10.38;;;;;;;;;;4979857;28;20015;-67
2023/04/10 07:04:45;;;;;;;16.25;10.23;;;;;;;;;;4983174;28;20042;-66
2023/04/10 07:07:12;;;;;;;19.13;11.00;;;;;;;;;;4983985;28;20126;-66
2023/04/10 07:09:37;;;;;;;19.23;10.88;;;;;;;;;;4973232;28;20030;-66
2023/04/10 07:12:02;;;;;;;17.42;10.15;;;;;;;;;;4972507;28;20018;-65
2023/04/10 07:14:27;;;;;;;20.07;12.43;;;;;;;;;;4971726;28;20015;-66
2023/04/10 07:16:53;;;;;;;20.27;10.93;;;;;;;;;;4971315;28;20106;-66
2023/04/10 07:19:18;;;;;;;19.88;11.38;;;;;;;;;;4971667;28;20550;-67
2023/04/10 07:21:43;;;;;;;19.27;11.07;;;;;;;;;;4972126;28;20054;-66
2023/04/10 07:24:08;;;;;;;19.77;11.37;;;;;;;;;;4971831;28;20445;-65
2023/04/10 07:26:34;;;;;;;20.47;11.23;;;;;;;;;;4970921;28;20114;-65
2023/04/10 07:28:59;;;;;;;17.58;10.30;;;;;;;;;;4971737;28;20026;-66
2023/04/10 07:31:24;;;;;;;17.53;10.87;;;;;;;;;;4972518;28;20057;-68
2023/04/10 07:33:49;;;;;;;19.60;11.43;;;;;;;;;;4975254;28;20046;-66
2023/04/10 07:36:15;;;;;;;18.88;11.55;;;;;;;;;;4974816;28;20031;-67
2023/04/10 07:38:41;;;;;;;19.98;11.95;;;;;;;;;;4974741;28;20086;-68
2023/04/10 07:41:06;;;;;;;18.50;11.02;;;;;;;;;;4975262;28;20027;-67
2023/04/10 07:43:32;;;;;;;19.40;11.97;;;;;;;;;;4974943;28;20102;-68
2023/04/10 07:45:57;;;;;;;19.13;11.65;;;;;;;;;;4975833;28;20027;-66
2023/04/10 07:48:22;;;;;;;19.55;11.98;;;;;;;;;;4978764;28;20042;-65
2023/04/10 07:50:48;;;;;;;20.63;11.80;;;;;;;;;;4987487;28;20027;-65
2023/04/10 07:53:13;;;;;;;18.10;11.27;;;;;;;;;;4997614;28;19999;-68
2023/04/10 07:55:39;;;;;;;19.17;12.07;;;;;;;;;;4997466;28;20003;-70
2023/04/10 07:58:05;;;;;;;18.35;12.00;;;;;;;;;;4984422;28;20074;-66
2023/04/10 08:00:30;;;;;;;22.15;12.23;;;;;;;;;;4976231;28;20497;-66
2023/04/10 08:02:55;;;;;;;21.55;12.77;;;;;;;;;;4975719;28;20026;-66
2023/04/10 08:05:20;;;;;;;22.03;13.10;;;;;;;;;;4973877;28;20027;-68
2023/04/10 08:07:45;;;;;;;21.02;12.57;;;;;;;;;;4974961;28;20371;-67
2023/04/10 08:10:11;;;;;;;21.38;12.95;;;;;;;;;;4975201;28;20038;-68
2023/04/10 08:12:36;;;;;;;22.10;12.77;;;;;;;;;;4974588;28;20117;-66
2023/04/10 08:15:01;;;;;;;20.53;12.63;;;;;;;;;;4974711;28;20027;-68
2023/04/10 08:17:26;;;;;;;20.65;12.50;;;;;;;;;;4974349;28;20034;-66
2023/04/10 08:19:51;;;;;;;21.15;13.32;;;;;;;;;;4975055;28;20591;-66
2023/04/10 08:22:17;;;;;;;21.38;12.18;;;;;;;;;;4974647;28;20034;-68
2023/04/10 08:24:42;;;;;;;21.00;12.17;;;;;;;;;;4974346;28;20018;-65
2023/04/10 08:27:07;;;;;;;19.20;11.27;;;;;;;;;;4974132;28;20225;-66
2023/04/10 08:29:32;;;;;;;21.15;12.25;;;;;;;;;;4974408;28;20027;-64
2023/04/10 08:31:59;;;;;;;19.63;12.20;;;;;;;;;;4974732;28;20491;-66
2023/04/10 08:34:24;;;;;;;21.83;12.75;;;;;;;;;;4974396;28;20022;-66
2023/04/10 08:36:50;;;;;;;19.08;11.52;;;;;;;;;;4972306;28;20022;-65
2023/04/10 08:39:15;;;;;;;20.77;11.47;;;;;;;;;;4972778;28;20035;-66
2023/04/10 08:41:40;;;;;;;19.58;11.15;;;;;;;;;;4973602;28;20022;-66
2023/04/10 08:44:05;;;;;;;20.60;11.20;;;;;;;;;;4973450;28;20023;-66
2023/04/10 08:46:33;;;;;;;20.25;11.98;;;;;;;;;;4973235;28;20023;-65
2023/04/10 08:49:02;;;;;;;20.17;11.32;;;;;;;;;;4973264;28;20027;-66
2023/04/10 08:51:30;;;;;;;19.42;12.07;;;;;;;;;;4973742;28;20031;-66
2023/04/10 08:53:57;;;;;;;20.77;12.63;;;;;;;;;;4973498;28;20019;-67
2023/04/10 08:56:23;;;;;;;17.80;10.57;;;;;;;;;;4971741;28;20547;-67
2023/04/10 08:58:50;;;;;;;17.48;10.77;;;;;;;;;;4973526;28;20064;-60
2023/04/10 09:01:15;;;;;;;21.85;11.07;;;;;;;;;;4973913;28;20023;-61
2023/04/10 09:03:40;;;;;;;20.40;11.80;;;;;;;;;;4973527;28;20374;-66
2023/04/10 09:06:05;;;;;;;19.40;11.40;;;;;;;;;;4972907;28;20215;-67
2023/04/10 09:08:31;;;;;;;20.07;11.27;;;;;;;;;;4973255;28;20030;-64
2023/04/10 09:10:56;;;;;;;19.00;11.48;;;;;;;;;;4973363;28;20073;-66
2023/04/10 09:13:42;;;;;;;19.45;10.70;;;;;;;;;;4973325;28;20019;-67
2023/04/10 09:16:08;;;;;;;19.33;10.45;;;;;;;;;;4972804;28;20019;-66
2023/04/10 09:18:41;;;;;;;17.27;10.85;;;;;;;;;;4973090;28;20035;-67
2023/04/10 09:21:07;;;;;;;16.77;10.52;;;;;;;;;;4973065;28;20019;-66
2023/04/10 09:23:32;;;;;;;19.42;10.32;;;;;;;;;;4972949;28;20030;-68
2023/04/10 09:25:57;;;;;;;16.65;9.75;;;;;;;;;;4973101;28;20110;-66
2023/04/10 09:28:22;;;;;;;16.88;10.70;;;;;;;;;;4972684;28;20534;-67
2023/04/10 09:30:47;;;;;;;17.43;10.37;;;;;;;;;;4973215;28;20029;-66
2023/04/10 09:33:23;;;;;;;16.88;9.27;;;;;;;;;;4972955;28;20131;-66
2023/04/10 09:35:48;;;;;;;16.17;9.07;;;;;;;;;;4973590;28;20106;-66
2023/04/10 09:38:17;;;;;;;17.70;11.13;;;;;;;;;;4972455;28;20483;-66
2023/04/10 09:40:43;;;;;;;19.70;11.55;;;;;;;;;;4971890;28;20406;-65
2023/04/10 09:43:18;;;;;;;16.02;9.52;;;;;;;;;;4973898;28;20026;-66
2023/04/10 09:45:46;;;;;;;15.15;9.35;;;;;;;;;;4973094;28;20042;-65
2023/04/10 09:48:11;;;;;;;15.45;9.73;;;;;;;;;;4972325;28;20049;-66
2023/04/10 09:50:38;;;;;;;16.47;9.67;;;;;;;;;;4973146;28;20102;-66
2023/04/10 09:53:03;;;;;;;15.35;9.80;;;;;;;;;;4973165;28;20031;-66
2023/04/10 09:55:28;;;;;;;17.10;10.07;;;;;;;;;;4973590;28;20088;-67
2023/04/10 09:57:54;;;;;;;15.93;9.30;;;;;;;;;;4972420;28;20037;-65
2023/04/10 10:00:19;;;;;;;15.10;9.50;;;;;;;;;;4973508;28;20027;-65
2023/04/10 10:02:44;;;;;;;15.55;9.65;;;;;;;;;;4973058;28;20014;-66
2023/04/10 10:05:10;;;;;;;16.13;10.17;;;;;;;;;;4972999;28;20035;-67
2023/04/10 10:07:35;;;;;;;16.60;9.93;;;;;;;;;;4972239;28;20449;-67
2023/04/10 10:10:01;;;;;;;14.95;9.55;;;;;;;;;;4972872;28;20023;-65
2023/04/10 10:12:36;;;;;;;13.23;7.82;;;;;;;;;;4972088;28;20070;-66
2023/04/10 10:15:03;;;;;;;14.73;8.10;;;;;;;;;;4972475;28;20018;-66
2023/04/10 10:17:33;;;;;;;14.05;8.18;;;;;;;;;;4971885;28;20073;-66
2023/04/10 10:20:03;;;;;;;15.35;9.23;;;;;;;;;;4972236;28;20031;-66
2023/04/10 10:22:29;;;;;;;16.60;10.00;;;;;;;;;;4972551;28;20110;-67
2023/04/10 10:24:55;;;;;;;12.98;8.15;;;;;;;;;;4970967;28;20023;-66
2023/04/10 10:27:20;;;;;;;;;;;;;;;;;;4972093;28;20415;-66
2023/04/10 10:29:47;;;;;;;13.10;7.63;;;;;;;;;;4972045;28;20334;-67
2023/04/10 10:32:13;;;;;;;11.68;7.53;;;;;;;;;;4972411;28;20534;-66
2023/04/10 10:34:38;;;;;;;13.90;8.18;;;;;;;;;;4972703;28;20097;-68
2023/04/10 10:37:04;;;;;;;12.70;7.83;;;;;;;;;;4972189;28;20074;-67
2023/04/10 10:39:48;;;;;;;11.75;7.30;;;;;;;;;;4975627;28;20035;-68
2023/04/10 10:42:34;;;;;;;12.60;7.75;;;;;;;;;;4984158;28;20062;-68
2023/04/10 10:45:06;;;;;;;11.90;7.22;;;;;;;;;;4975504;28;20042;-66
2023/04/10 10:47:32;;;;;;;10.82;7.07;;;;;;;;;;4971762;28;20061;-66
2023/04/10 10:50:01;;;;;;;10.48;6.60;;;;;;;;;;4971668;28;20074;-66
2023/04/10 10:52:36;;;;;;;11.30;6.97;;;;;;;;;;4971898;28;20018;-67
2023/04/10 10:55:20;;;;;;;12.98;6.72;;;;;;;;;;4971947;28;20019;-66
2023/04/10 10:57:46;;;;;;;11.68;6.40;;;;;;;;;;4969914;28;20027;-68
2023/04/10 11:00:11;;;;;;;12.80;6.78;;;;;;;;;;4972169;28;20066;-66
2023/04/10 11:02:36;;;;;;;11.35;6.68;;;;;;;;;;4972306;28;20110;-67
2023/04/10 11:05:02;;;;;;;11.60;7.00;;;;;;;;;;4971611;28;20027;-65
2023/04/10 11:07:47;;;;;;;10.80;6.63;;;;;;;;;;4975475;28;20035;-66
2023/04/10 11:10:13;;;;;;;12.40;6.88;;;;;;;;;;4975783;28;20506;-65
2023/04/10 11:12:59;;;;;;;9.98;6.95;;;;;;;;;;4976742;28;20026;-65
2023/04/10 11:15:24;;;;;;;11.07;6.63;;;;;;;;;;4975830;28;20406;-65
2023/04/10 11:17:50;;;;;;;12.47;7.60;;;;;;;;;;4975860;28;20027;-66
2023/04/10 11:20:16;;;;;;;11.95;7.82;;;;;;;;;;4975311;28;20431;-67
2023/04/10 11:23:04;;;;;;;14.57;8.00;;;;;;;;;;4976240;28;20077;-65
2023/04/10 11:25:45;;;;;;;11.75;7.53;;;;;;;;;;4977018;28;20387;-67
2023/04/10 11:28:30;;;;;;;13.05;7.90;;;;;;;;;;4976907;28;20026;-67
2023/04/10 11:30:55;;;;;;;13.80;8.27;;;;;;;;;;4977412;28;20030;-66
2023/04/10 11:33:20;;;;;;;12.97;7.60;;;;;;;;;;4979684;28;20035;-66
2023/04/10 11:35:46;;;;;;;13.00;8.30;;;;;;;;;;4976680;28;20395;-64
2023/04/10 11:38:15;;;;;;;15.23;8.50;;;;;;;;;;4974540;28;20502;-69
2023/04/10 11:40:54;;;;;;;15.57;8.85;;;;;;;;;;4973674;28;20027;-65
2023/04/10 11:43:19;;;;;;;15.05;9.27;;;;;;;;;;4974997;28;20046;-67
2023/04/10 11:45:44;;;;;;;14.97;9.30;;;;;;;;;;4975086;28;20102;-67
2023/04/10 11:48:09;;;;;;;15.02;9.30;;;;;;;;;;4974096;28;20061;-66
2023/04/10 11:50:35;;;;;;;16.77;9.43;;;;;;;;;;4974621;28;20019;-68
2023/04/10 11:53:00;;;;;;;14.65;8.63;;;;;;;;;;4974391;28;20466;-68
2023/04/10 11:55:38;;;;;;;14.32;8.75;;;;;;;;;;4974624;28;20019;-67
2023/04/10 11:58:03;;;;;;;13.73;8.25;;;;;;;;;;4973813;28;20077;-67
2023/04/10 12:00:28;;;;;;;13.02;8.00;;;;;;;;;;4974343;28;20039;-66
2023/04/10 12:02:53;;;;;;;14.60;8.20;;;;;;;;;;4974364;28;20023;-67
2023/04/10 12:05:18;;;;;;;15.48;9.00;;;;;;;;;;4974674;28;20035;-66
2023/04/10 12:07:43;;;;;;;13.45;8.25;;;;;;;;;;4973566;28;20030;-67
2023/04/10 12:10:09;;;;;;;14.23;8.50;;;;;;;;;;4974248;28;20015;-68
2023/04/10 12:12:35;;;;;;;13.63;7.95;;;;;;;;;;4974729;28;20026;-67
2023/04/10 12:15:00;;;;;;;14.32;8.48;;;;;;;;;;4974562;28;20023;-66
2023/04/10 12:17:26;;;;;;;14.67;8.13;;;;;;;;;;4972737;28;20030;-67
2023/04/10 12:19:52;;;;;;;12.40;8.15;;;;;;;;;;4973806;28;20041;-68
2023/04/10 12:22:17;;;;;;;11.07;7.47;;;;;;;;;;4974434;28;20351;-67
2023/04/10 12:24:46;;;;;;;11.80;7.13;;;;;;;;;;4974690;28;20023;-65
2023/04/10 12:27:17;;;;;;;15.73;9.00;;;;;;;;;;4972582;28;20027;-70
2023/04/10 12:29:45;;;;;;;11.02;7.38;;;;;;;;;;4974303;28;20022;-66
2023/04/10 12:32:10;;;;;;;14.10;8.82;;;;;;;;;;4975007;28;20019;-67
2023/04/10 12:34:35;;;;;;;14.03;8.10;;;;;;;;;;4973832;28;20095;-69
2023/04/10 12:37:02;;;;;;;13.47;7.77;;;;;;;;;;4974274;28;20442;-66
2023/04/10 12:39:28;;;;;;;10.48;7.13;;;;;;;;;;4974315;28;20217;-66
2023/04/10 12:42:09;;;;;;;11.30;7.38;;;;;;;;;;4974512;28;20026;-67
2023/04/10 12:44:35;;;;;;;11.57;5.90;;;;;;;;;;4974158;28;20019;-67
2023/04/10 12:47:00;;;;;;;11.77;6.10;;;;;;;;;;4973884;28;20382;-67
2023/04/10 12:49:25;;;;;;;9.65;6.32;;;;;;;;;;4973578;28;20030;-67
2023/04/10 12:51:51;;;;;;;11.95;7.05;;;;;;;;;;4972411;28;20046;-67
2023/04/10 12:54:26;;;;;;;10.30;6.65;;;;;;;;;;4973455;28;20031;-67
2023/04/10 12:56:53;;;;;;;8.95;5.65;;;;;;;;;;4973069;28;20520;-69
2023/04/10 12:59:18;;;;;;;9.60;5.82;;;;;;;;;;4973257;28;20054;-66
2023/04/10 13:01:43;;;;;;;9.55;6.13;;;;;;;;;;4973941;28;20463;-67
2023/04/10 13:04:08;;;;;;;9.67;5.87;;;;;;;;;;4973302;28;20101;-66
2023/04/10 13:06:41;;;;;;;10.48;6.53;;;;;;;;;;4972848;28;20014;-68
2023/04/10 13:09:06;;;;;;;10.02;6.45;;;;;;;;;;4973871;28;20054;-66
2023/04/10 13:11:31;;;;;;;9.98;6.28;;;;;;;;;;4973785;28;20109;-69
2023/04/10 13:13:56;;;;;;;10.48;6.93;;;;;;;;;;4975424;28;20031;-66
2023/04/10 13:16:21;;;;;;;11.02;6.22;;;;;;;;;;4979258;28;20030;-67
2023/04/10 13:18:46;;;;;;;10.50;6.03;;;;;;;;;;4989425;28;20101;-65
2023/04/10 13:21:17;;;;;;;7.97;5.38;;;;;;;;;;4990007;28;20094;-68
2023/04/10 13:23:42;;;;;;;9.82;5.10;;;;;;;;;;4993224;28;20018;-67
2023/04/10 13:26:07;;;;;;;9.35;5.93;;;;;;;;;;4993428;28;20486;-67
2023/04/10 13:28:32;;;;;;;9.02;5.70;;;;;;;;;;4991463;28;20031;-67
2023/04/10 13:30:57;;;;;;;8.73;5.40;;;;;;;;;;4974649;28;20055;-66
2023/04/10 13:33:23;;;;;;;8.93;5.50;;;;;;;;;;4974169;28;20014;-67
2023/04/10 13:35:50;;;;;;;9.35;5.80;;;;;;;;;;4973307;28;20026;-68
2023/04/10 13:38:15;;;;;;;;;;;;;;;;;;4973198;28;20030;-66
2023/04/10 13:40:40;;;;;;;7.03;4.68;;;;;;;;;;4961209;28;19919;-65
2023/04/10 13:43:05;;;;;;;7.45;4.65;;;;;;;;;;4953660;28;20078;-66
2023/04/10 13:45:30;;;;;;;7.13;4.47;;;;;;;;;;4952417;28;20066;-67
2023/04/10 13:47:55;;;;;;;6.70;4.00;;;;;;;;;;4952604;28;20028;-67
2023/04/10 13:50:21;;;;;;;7.18;4.30;;;;;;;;;;4952858;28;20046;-67
2023/04/10 13:52:46;;;;;;;8.48;4.30;;;;;;;;;;4953582;28;20030;-67
2023/04/10 13:55:11;;;;;;;7.00;4.40;;;;;;;;;;4953223;28;20059;-68
2023/04/10 13:57:37;;;;;;;7.70;4.40;;;;;;;;;;4952963;28;20026;-67
2023/04/10 14:00:03;;;;;;;7.43;3.78;;;;;;;;;;4953235;28;20031;-67
2023/04/10 14:02:28;;;;;;;6.63;3.90;;;;;;;;;;4959560;28;20027;-68
2023/04/10 14:04:53;;;;;;;7.03;3.80;;;;;;;;;;4972213;28;20026;-66
2023/04/10 14:07:19;;;;;;;6.70;3.60;;;;;;;;;;4972205;28;20038;-66
2023/04/10 14:09:45;;;;;;;7.00;4.17;;;;;;;;;;4972509;28;20015;-65
2023/04/10 14:12:11;;;;;;;7.97;4.15;;;;;;;;;;4972772;28;20394;-66
2023/04/10 14:14:36;;;;;;;6.50;3.88;;;;;;;;;;4972534;28;20025;-65
2023/04/10 14:17:01;;;;;;;6.28;3.58;;;;;;;;;;4972215;28;20387;-67
2023/04/10 14:19:26;;;;;;;6.83;3.80;;;;;;;;;;4974318;28;20093;-67